Navesink, New Jersey
Current Conditions -  °F | °C
As of 10:35 AM on Saturday 22 Nov 2014 (Local Time) from KBLM Reporting Station
Clear Clear  
Wind Chill: 28°   Ceiling: Unl
Heat Index: 36°   Visibility: 10mi
Dew Point: 10°   Wind: 12mph
Humidity: 35%   Direction: 250°WSW
Pressure: 30.46"   Gusts: 16mph
Location:  40.4°N, 74.03°W
Report Text: KBLM 221535Z AUTO 25010G14KT 10SM CLR 02/M12 A3046 RMK AO1
Loading
Personal Weather Stations






























Interactive Weather Map New forecast layout! Learn more

10-Day Weather Forecast

Advertisements
Track Severe Weather on mobile